Rourkela Airport


Codes: VERK/RRK
Name: Rourkela Airport
City:
Country: India
Elevation: 659 ft.

Photos at Rourkela Airport


   Photos courtesy of SpottingLog. You can add your own sightings and photos by signing up for a free trial today.



No photos found.

Weather at Rourkela Airport


Time (UTC)DescriptionTempratureWindCloud coverageVisibilityPressureHumidity
21-Feb-2024 03:00Clear Sky21°C2 mph, NW9%10000m1012hPa40%
21-Feb-2024 06:00Few Clouds28°C9 mph, W20%10000m1010hPa27%
21-Feb-2024 09:00Broken Clouds35°C13 mph, SW65%10000m1007hPa15%
21-Feb-2024 12:00Broken Clouds31°C11 mph, SW68%10000m1007hPa19%
21-Feb-2024 15:00Broken Clouds25°C4 mph, SW58%10000m1009hPa29%
21-Feb-2024 18:00Scattered Clouds22°C0 mph, W39%10000m1009hPa34%
21-Feb-2024 21:00Few Clouds20°C0 mph, SE18%10000m1007hPa39%
22-Feb-2024 00:00Few Clouds18°C2 mph, SE23%10000m1009hPa44%
22-Feb-2024 03:00Overcast Clouds25°C2 mph, SW100%10000m1011hPa31%
22-Feb-2024 06:00Broken Clouds34°C13 mph, SW70%10000m1009hPa15%
22-Feb-2024 09:00Clear Sky35°C18 mph, SW2%10000m1006hPa13%
22-Feb-2024 12:00Scattered Clouds31°C11 mph, SW27%10000m1006hPa18%
22-Feb-2024 15:00Few Clouds24°C4 mph, SW11%10000m1008hPa29%
22-Feb-2024 18:00Clear Sky22°C4 mph, S7%10000m1009hPa32%
22-Feb-2024 21:00Few Clouds19°C2 mph, NW16%10000m1009hPa39%
23-Feb-2024 00:00Few Clouds17°C4 mph, N15%10000m1011hPa57%
23-Feb-2024 03:00Clear Sky23°C7 mph, NE0%10000m1014hPa42%
23-Feb-2024 06:00Clear Sky32°C0 mph, NW0%10000m1012hPa21%
23-Feb-2024 09:00Clear Sky34°C11 mph, W0%10000m1008hPa15%
23-Feb-2024 12:00Clear Sky30°C9 mph, SW0%10000m1008hPa18%
23-Feb-2024 15:00Clear Sky23°C2 mph, NW0%10000m1011hPa25%
23-Feb-2024 18:00Clear Sky20°C7 mph, NE1%10000m1012hPa42%
23-Feb-2024 21:00Clear Sky18°C4 mph, NE3%10000m1012hPa55%
24-Feb-2024 00:00Clear Sky16°C4 mph, NE9%10000m1012hPa63%
24-Feb-2024 03:00Clear Sky24°C11 mph, E0%10000m1014hPa39%
24-Feb-2024 06:00Clear Sky33°C7 mph, SE0%10000m1012hPa24%
24-Feb-2024 09:00Clear Sky36°C9 mph, W1%10000m1008hPa13%
24-Feb-2024 12:00Clear Sky32°C11 mph, W3%10000m1009hPa15%
24-Feb-2024 15:00Clear Sky24°C2 mph, N0%10000m1011hPa25%
24-Feb-2024 18:00Clear Sky21°C7 mph, SE1%10000m1012hPa67%
24-Feb-2024 21:00Clear Sky19°C4 mph, NE2%10000m1010hPa80%
25-Feb-2024 00:00Clear Sky18°C2 mph, E10%10000m1011hPa83%
25-Feb-2024 03:00Scattered Clouds24°C2 mph, SE31%10000m1013hPa66%
25-Feb-2024 06:00Few Clouds33°C7 mph, S19%10000m1012hPa35%
25-Feb-2024 09:00Few Clouds36°C9 mph, SW16%10000m1008hPa19%
25-Feb-2024 12:00Few Clouds33°C11 mph, W23%10000m1008hPa18%
25-Feb-2024 15:00Clear Sky25°C4 mph, S8%10000m1011hPa31%
25-Feb-2024 18:00Clear Sky22°C2 mph, SE9%10000m1011hPa77%
25-Feb-2024 21:00Scattered Clouds20°C4 mph, NE32%10000m1011hPa80%
26-Feb-2024 00:00Light Rain20°C4 mph, SE26%10000m1012hPa75%